sensor_id;sensor_type;location;lat;lon;timestamp;P1;durP1;ratioP1;P2;durP2;ratioP2
20647;SDS011;10483;44.646;10.924;2022-08-21T00:02:24;4.03;;;2.50;;
20647;SDS011;10483;44.646;10.924;2022-08-21T00:04:52;2.60;;;2.40;;
20647;SDS011;10483;44.646;10.924;2022-08-21T00:07:20;2.52;;;2.42;;
20647;SDS011;10483;44.646;10.924;2022-08-21T00:09:46;2.87;;;2.67;;
20647;SDS011;10483;44.646;10.924;2022-08-21T00:12:13;2.47;;;2.27;;
20647;SDS011;10483;44.646;10.924;2022-08-21T00:14:40;2.60;;;2.40;;
20647;SDS011;10483;44.646;10.924;2022-08-21T00:17:07;3.42;;;2.50;;
20647;SDS011;10483;44.646;10.924;2022-08-21T00:19:33;3.20;;;3.00;;
20647;SDS011;10483;44.646;10.924;2022-08-21T00:22:00;4.17;;;2.83;;
20647;SDS011;10483;44.646;10.924;2022-08-21T00:24:27;3.10;;;2.90;;
20647;SDS011;10483;44.646;10.924;2022-08-21T00:26:53;3.30;;;3.10;;
20647;SDS011;10483;44.646;10.924;2022-08-21T00:29:20;3.70;;;3.40;;
20647;SDS011;10483;44.646;10.924;2022-08-21T00:31:47;3.92;;;3.62;;
20647;SDS011;10483;44.646;10.924;2022-08-21T00:34:14;3.92;;;3.60;;
20647;SDS011;10483;44.646;10.924;2022-08-21T00:36:40;4.25;;;3.77;;
20647;SDS011;10483;44.646;10.924;2022-08-21T00:39:07;4.53;;;4.12;;
20647;SDS011;10483;44.646;10.924;2022-08-21T00:41:35;4.75;;;4.35;;
20647;SDS011;10483;44.646;10.924;2022-08-21T00:44:03;4.75;;;4.28;;
20647;SDS011;10483;44.646;10.924;2022-08-21T00:46:31;4.72;;;4.33;;
20647;SDS011;10483;44.646;10.924;2022-08-21T00:48:57;5.33;;;4.92;;
20647;SDS011;10483;44.646;10.924;2022-08-21T00:51:35;5.55;;;5.05;;
20647;SDS011;10483;44.646;10.924;2022-08-21T00:53:57;4.95;;;4.53;;
20647;SDS011;10483;44.646;10.924;2022-08-21T00:56:27;5.20;;;4.80;;
20647;SDS011;10483;44.646;10.924;2022-08-21T00:58:54;5.12;;;4.72;;
20647;SDS011;10483;44.646;10.924;2022-08-21T01:01:24;5.60;;;4.53;;
20647;SDS011;10483;44.646;10.924;2022-08-21T01:03:50;5.45;;;4.67;;
20647;SDS011;10483;44.646;10.924;2022-08-21T01:06:17;4.58;;;4.20;;
20647;SDS011;10483;44.646;10.924;2022-08-21T01:08:44;4.28;;;3.90;;
20647;SDS011;10483;44.646;10.924;2022-08-21T01:11:11;4.58;;;4.20;;
20647;SDS011;10483;44.646;10.924;2022-08-21T01:13:38;4.20;;;3.90;;
20647;SDS011;10483;44.646;10.924;2022-08-21T01:16:08;4.17;;;3.87;;
20647;SDS011;10483;44.646;10.924;2022-08-21T01:18:35;4.90;;;4.47;;
20647;SDS011;10483;44.646;10.924;2022-08-21T01:21:11;4.20;;;3.90;;
20647;SDS011;10483;44.646;10.924;2022-08-21T01:23:46;4.60;;;4.30;;
20647;SDS011;10483;44.646;10.924;2022-08-21T01:26:14;4.10;;;3.80;;
20647;SDS011;10483;44.646;10.924;2022-08-21T01:28:45;4.37;;;3.98;;
20647;SDS011;10483;44.646;10.924;2022-08-21T01:31:29;4.45;;;4.05;;
20647;SDS011;10483;44.646;10.924;2022-08-21T01:33:58;4.05;;;3.75;;
20647;SDS011;10483;44.646;10.924;2022-08-21T01:36:26;4.25;;;3.75;;
20647;SDS011;10483;44.646;10.924;2022-08-21T01:38:52;5.85;;;4.10;;
20647;SDS011;10483;44.646;10.924;2022-08-21T01:41:19;4.33;;;3.92;;
20647;SDS011;10483;44.646;10.924;2022-08-21T01:43:46;4.58;;;4.17;;
20647;SDS011;10483;44.646;10.924;2022-08-21T01:46:13;3.95;;;3.65;;
20647;SDS011;10483;44.646;10.924;2022-08-21T01:48:40;4.42;;;4.12;;
20647;SDS011;10483;44.646;10.924;2022-08-21T01:51:08;4.53;;;4.12;;
20647;SDS011;10483;44.646;10.924;2022-08-21T01:53:35;4.95;;;4.40;;
20647;SDS011;10483;44.646;10.924;2022-08-21T01:56:05;4.42;;;4.03;;
20647;SDS011;10483;44.646;10.924;2022-08-21T01:58:34;4.12;;;3.83;;
20647;SDS011;10483;44.646;10.924;2022-08-21T02:01:01;4.53;;;4.12;;
20647;SDS011;10483;44.646;10.924;2022-08-21T02:03:29;4.60;;;4.20;;
20647;SDS011;10483;44.646;10.924;2022-08-21T02:05:56;4.72;;;4.25;;
20647;SDS011;10483;44.646;10.924;2022-08-21T02:08:23;4.70;;;4.30;;
20647;SDS011;10483;44.646;10.924;2022-08-21T02:10:51;5.20;;;4.70;;
20647;SDS011;10483;44.646;10.924;2022-08-21T02:13:18;4.75;;;4.33;;
20647;SDS011;10483;44.646;10.924;2022-08-21T02:15:47;4.87;;;4.53;;
20647;SDS011;10483;44.646;10.924;2022-08-21T02:18:14;5.37;;;4.90;;
20647;SDS011;10483;44.646;10.924;2022-08-21T02:20:43;5.17;;;4.67;;
20647;SDS011;10483;44.646;10.924;2022-08-21T02:23:12;5.33;;;4.90;;
20647;SDS011;10483;44.646;10.924;2022-08-21T02:25:39;4.67;;;4.30;;
20647;SDS011;10483;44.646;10.924;2022-08-21T02:28:07;5.70;;;5.10;;
20647;SDS011;10483;44.646;10.924;2022-08-21T02:30:37;5.60;;;5.10;;
20647;SDS011;10483;44.646;10.924;2022-08-21T02:33:07;5.70;;;5.28;;
20647;SDS011;10483;44.646;10.924;2022-08-21T02:35:35;5.70;;;5.10;;
20647;SDS011;10483;44.646;10.924;2022-08-21T02:38:05;5.60;;;5.10;;
20647;SDS011;10483;44.646;10.924;2022-08-21T02:40:35;5.92;;;5.42;;
20647;SDS011;10483;44.646;10.924;2022-08-21T02:43:03;5.75;;;5.25;;
20647;SDS011;10483;44.646;10.924;2022-08-21T02:45:32;6.10;;;5.60;;
20647;SDS011;10483;44.646;10.924;2022-08-21T02:48:00;5.28;;;4.78;;
20647;SDS011;10483;44.646;10.924;2022-08-21T02:50:30;5.30;;;4.87;;
20647;SDS011;10483;44.646;10.924;2022-08-21T02:52:59;4.83;;;4.53;;
20647;SDS011;10483;44.646;10.924;2022-08-21T02:55:27;5.05;;;4.60;;
20647;SDS011;10483;44.646;10.924;2022-08-21T02:57:56;4.28;;;3.98;;
20647;SDS011;10483;44.646;10.924;2022-08-21T03:00:24;4.75;;;4.33;;
20647;SDS011;10483;44.646;10.924;2022-08-21T03:02:53;4.78;;;4.28;;
20647;SDS011;10483;44.646;10.924;2022-08-21T03:05:21;4.47;;;4.05;;
20647;SDS011;10483;44.646;10.924;2022-08-21T03:07:49;4.40;;;4.00;;
20647;SDS011;10483;44.646;10.924;2022-08-21T03:10:18;4.20;;;3.90;;
20647;SDS011;10483;44.646;10.924;2022-08-21T03:12:45;5.25;;;4.20;;
20647;SDS011;10483;44.646;10.924;2022-08-21T03:15:15;4.12;;;3.65;;
20647;SDS011;10483;44.646;10.924;2022-08-21T03:17:43;3.55;;;3.25;;
20647;SDS011;10483;44.646;10.924;2022-08-21T03:20:11;4.20;;;3.80;;
20647;SDS011;10483;44.646;10.924;2022-08-21T03:22:40;3.92;;;3.62;;
20647;SDS011;10483;44.646;10.924;2022-08-21T03:25:07;4.42;;;3.33;;
20647;SDS011;10483;44.646;10.924;2022-08-21T03:27:35;3.25;;;3.05;;
20647;SDS011;10483;44.646;10.924;2022-08-21T03:30:03;3.83;;;3.50;;
20647;SDS011;10483;44.646;10.924;2022-08-21T03:32:32;3.00;;;2.80;;
20647;SDS011;10483;44.646;10.924;2022-08-21T03:34:59;3.37;;;3.08;;
20647;SDS011;10483;44.646;10.924;2022-08-21T03:37:26;3.47;;;3.17;;
20647;SDS011;10483;44.646;10.924;2022-08-21T03:39:53;3.42;;;3.10;;
20647;SDS011;10483;44.646;10.924;2022-08-21T03:42:19;3.05;;;2.85;;
20647;SDS011;10483;44.646;10.924;2022-08-21T03:44:46;3.27;;;3.00;;
20647;SDS011;10483;44.646;10.924;2022-08-21T03:47:14;3.62;;;3.30;;
20647;SDS011;10483;44.646;10.924;2022-08-21T03:49:40;2.95;;;2.70;;
20647;SDS011;10483;44.646;10.924;2022-08-21T03:52:07;3.40;;;3.10;;
20647;SDS011;10483;44.646;10.924;2022-08-21T03:54:34;3.12;;;2.90;;
20647;SDS011;10483;44.646;10.924;2022-08-21T03:57:01;2.92;;;2.72;;
20647;SDS011;10483;44.646;10.924;2022-08-21T03:59:28;3.42;;;3.00;;
20647;SDS011;10483;44.646;10.924;2022-08-21T04:01:56;3.40;;;2.83;;
20647;SDS011;10483;44.646;10.924;2022-08-21T04:04:25;3.20;;;3.00;;
20647;SDS011;10483;44.646;10.924;2022-08-21T04:06:53;3.47;;;3.00;;
20647;SDS011;10483;44.646;10.924;2022-08-21T04:09:21;3.10;;;2.90;;
20647;SDS011;10483;44.646;10.924;2022-08-21T04:11:48;2.92;;;2.72;;
20647;SDS011;10483;44.646;10.924;2022-08-21T04:14:16;3.37;;;3.08;;
20647;SDS011;10483;44.646;10.924;2022-08-21T04:16:43;2.83;;;2.62;;
20647;SDS011;10483;44.646;10.924;2022-08-21T04:19:10;2.83;;;2.62;;
20647;SDS011;10483;44.646;10.924;2022-08-21T04:21:39;2.90;;;2.70;;
20647;SDS011;10483;44.646;10.924;2022-08-21T04:24:07;4.35;;;2.83;;
20647;SDS011;10483;44.646;10.924;2022-08-21T04:26:35;3.15;;;2.95;;
20647;SDS011;10483;44.646;10.924;2022-08-21T04:29:04;3.72;;;2.52;;
20647;SDS011;10483;44.646;10.924;2022-08-21T04:31:32;3.33;;;3.02;;
20647;SDS011;10483;44.646;10.924;2022-08-21T04:34:02;3.10;;;2.90;;
20647;SDS011;10483;44.646;10.924;2022-08-21T04:36:30;3.52;;;2.58;;
20647;SDS011;10483;44.646;10.924;2022-08-21T04:38:58;3.10;;;2.62;;
20647;SDS011;10483;44.646;10.924;2022-08-21T04:41:25;2.95;;;2.65;;
20647;SDS011;10483;44.646;10.924;2022-08-21T04:43:51;3.20;;;2.47;;
20647;SDS011;10483;44.646;10.924;2022-08-21T04:46:20;2.70;;;2.50;;
20647;SDS011;10483;44.646;10.924;2022-08-21T04:48:48;2.87;;;2.67;;
20647;SDS011;10483;44.646;10.924;2022-08-21T04:51:16;3.02;;;2.72;;
20647;SDS011;10483;44.646;10.924;2022-08-21T04:53:51;2.70;;;2.50;;
20647;SDS011;10483;44.646;10.924;2022-08-21T04:56:21;2.47;;;2.35;;
20647;SDS011;10483;44.646;10.924;2022-08-21T04:58:52;2.83;;;2.62;;
20647;SDS011;10483;44.646;10.924;2022-08-21T05:01:22;2.90;;;2.67;;
20647;SDS011;10483;44.646;10.924;2022-08-21T05:03:52;2.90;;;2.70;;
20647;SDS011;10483;44.646;10.924;2022-08-21T05:06:22;3.52;;;2.80;;
20647;SDS011;10483;44.646;10.924;2022-08-21T05:08:50;2.75;;;2.55;;
20647;SDS011;10483;44.646;10.924;2022-08-21T05:11:19;2.40;;;2.30;;
20647;SDS011;10483;44.646;10.924;2022-08-21T05:13:47;2.87;;;2.67;;
20647;SDS011;10483;44.646;10.924;2022-08-21T05:16:15;2.50;;;2.30;;
20647;SDS011;10483;44.646;10.924;2022-08-21T05:18:42;3.75;;;2.40;;
20647;SDS011;10483;44.646;10.924;2022-08-21T05:21:09;2.67;;;2.40;;
20647;SDS011;10483;44.646;10.924;2022-08-21T05:23:36;2.70;;;2.50;;
20647;SDS011;10483;44.646;10.924;2022-08-21T05:26:03;2.92;;;2.65;;
20647;SDS011;10483;44.646;10.924;2022-08-21T05:28:30;3.08;;;2.80;;
20647;SDS011;10483;44.646;10.924;2022-08-21T05:30:57;3.27;;;2.98;;
20647;SDS011;10483;44.646;10.924;2022-08-21T05:33:24;2.50;;;2.40;;
20647;SDS011;10483;44.646;10.924;2022-08-21T05:35:52;3.00;;;2.80;;
20647;SDS011;10483;44.646;10.924;2022-08-21T05:38:21;3.10;;;2.65;;
20647;SDS011;10483;44.646;10.924;2022-08-21T05:40:49;2.87;;;2.62;;
20647;SDS011;10483;44.646;10.924;2022-08-21T05:43:16;4.12;;;3.22;;
20647;SDS011;10483;44.646;10.924;2022-08-21T05:45:42;2.85;;;2.65;;
20647;SDS011;10483;44.646;10.924;2022-08-21T05:48:12;2.98;;;2.70;;
20647;SDS011;10483;44.646;10.924;2022-08-21T05:50:42;3.12;;;2.90;;
20647;SDS011;10483;44.646;10.924;2022-08-21T05:53:10;3.35;;;3.05;;
20647;SDS011;10483;44.646;10.924;2022-08-21T05:55:38;3.20;;;3.00;;
20647;SDS011;10483;44.646;10.924;2022-08-21T05:58:05;3.62;;;2.80;;
20647;SDS011;10483;44.646;10.924;2022-08-21T06:00:32;3.12;;;2.83;;
20647;SDS011;10483;44.646;10.924;2022-08-21T06:02:59;3.30;;;3.10;;
20647;SDS011;10483;44.646;10.924;2022-08-21T06:05:26;3.25;;;3.05;;
20647;SDS011;10483;44.646;10.924;2022-08-21T06:07:53;3.60;;;3.30;;
20647;SDS011;10483;44.646;10.924;2022-08-21T06:10:20;4.25;;;3.50;;
20647;SDS011;10483;44.646;10.924;2022-08-21T06:12:47;3.58;;;3.20;;
20647;SDS011;10483;44.646;10.924;2022-08-21T06:15:17;3.60;;;3.30;;
20647;SDS011;10483;44.646;10.924;2022-08-21T06:17:44;4.12;;;3.15;;
20647;SDS011;10483;44.646;10.924;2022-08-21T06:20:11;3.40;;;3.10;;
20647;SDS011;10483;44.646;10.924;2022-08-21T06:22:37;3.30;;;2.98;;
20647;SDS011;10483;44.646;10.924;2022-08-21T06:25:04;3.33;;;3.12;;
20647;SDS011;10483;44.646;10.924;2022-08-21T06:27:32;3.70;;;3.35;;
20647;SDS011;10483;44.646;10.924;2022-08-21T06:29:58;3.47;;;3.20;;
20647;SDS011;10483;44.646;10.924;2022-08-21T06:32:25;4.45;;;3.40;;
20647;SDS011;10483;44.646;10.924;2022-08-21T06:34:51;4.42;;;4.00;;
20647;SDS011;10483;44.646;10.924;2022-08-21T06:37:18;3.85;;;3.55;;
20647;SDS011;10483;44.646;10.924;2022-08-21T06:39:45;5.90;;;4.28;;
20647;SDS011;10483;44.646;10.924;2022-08-21T06:42:13;4.00;;;3.67;;
20647;SDS011;10483;44.646;10.924;2022-08-21T06:44:42;4.17;;;3.77;;
20647;SDS011;10483;44.646;10.924;2022-08-21T06:47:09;3.83;;;3.52;;
20647;SDS011;10483;44.646;10.924;2022-08-21T06:49:36;3.98;;;3.67;;
20647;SDS011;10483;44.646;10.924;2022-08-21T06:52:03;4.20;;;3.90;;
20647;SDS011;10483;44.646;10.924;2022-08-21T06:54:29;3.90;;;3.60;;
20647;SDS011;10483;44.646;10.924;2022-08-21T06:56:58;5.42;;;3.50;;
20647;SDS011;10483;44.646;10.924;2022-08-21T06:59:24;3.75;;;3.30;;
20647;SDS011;10483;44.646;10.924;2022-08-21T07:01:51;3.65;;;3.35;;
20647;SDS011;10483;44.646;10.924;2022-08-21T07:04:18;3.50;;;3.20;;
20647;SDS011;10483;44.646;10.924;2022-08-21T07:06:45;4.12;;;2.85;;
20647;SDS011;10483;44.646;10.924;2022-08-21T07:09:12;3.35;;;3.15;;
20647;SDS011;10483;44.646;10.924;2022-08-21T07:11:38;3.20;;;3.00;;
20647;SDS011;10483;44.646;10.924;2022-08-21T07:14:05;2.70;;;2.50;;
20647;SDS011;10483;44.646;10.924;2022-08-21T07:16:32;2.67;;;2.47;;
20647;SDS011;10483;44.646;10.924;2022-08-21T07:18:58;3.00;;;2.80;;
20647;SDS011;10483;44.646;10.924;2022-08-21T07:21:25;3.02;;;2.62;;
20647;SDS011;10483;44.646;10.924;2022-08-21T07:23:52;3.58;;;2.90;;
20647;SDS011;10483;44.646;10.924;2022-08-21T07:26:20;2.80;;;2.60;;
20647;SDS011;10483;44.646;10.924;2022-08-21T07:28:48;3.15;;;2.77;;
20647;SDS011;10483;44.646;10.924;2022-08-21T07:31:16;3.87;;;2.87;;
20647;SDS011;10483;44.646;10.924;2022-08-21T07:33:45;2.80;;;2.60;;
20647;SDS011;10483;44.646;10.924;2022-08-21T07:36:12;3.10;;;2.83;;
20647;SDS011;10483;44.646;10.924;2022-08-21T07:38:39;2.83;;;2.62;;
20647;SDS011;10483;44.646;10.924;2022-08-21T07:41:13;3.72;;;2.92;;
20647;SDS011;10483;44.646;10.924;2022-08-21T07:43:37;4.80;;;2.98;;
20647;SDS011;10483;44.646;10.924;2022-08-21T07:46:04;3.02;;;2.77;;
20647;SDS011;10483;44.646;10.924;2022-08-21T07:48:31;2.92;;;2.55;;
20647;SDS011;10483;44.646;10.924;2022-08-21T07:50:59;3.00;;;2.72;;
20647;SDS011;10483;44.646;10.924;2022-08-21T07:53:29;2.60;;;2.50;;
20647;SDS011;10483;44.646;10.924;2022-08-21T07:55:57;2.80;;;2.60;;
20647;SDS011;10483;44.646;10.924;2022-08-21T07:58:24;3.20;;;2.77;;
20647;SDS011;10483;44.646;10.924;2022-08-21T08:00:51;2.67;;;2.47;;
20647;SDS011;10483;44.646;10.924;2022-08-21T08:03:17;2.80;;;2.60;;
20647;SDS011;10483;44.646;10.924;2022-08-21T08:05:44;4.10;;;2.35;;
20647;SDS011;10483;44.646;10.924;2022-08-21T08:08:11;2.70;;;2.50;;
20647;SDS011;10483;44.646;10.924;2022-08-21T08:10:37;2.65;;;2.30;;
20647;SDS011;10483;44.646;10.924;2022-08-21T08:13:05;2.80;;;2.50;;
20647;SDS011;10483;44.646;10.924;2022-08-21T08:15:31;2.80;;;2.17;;
20647;SDS011;10483;44.646;10.924;2022-08-21T08:17:58;2.70;;;2.50;;
20647;SDS011;10483;44.646;10.924;2022-08-21T08:20:26;2.75;;;2.55;;
20647;SDS011;10483;44.646;10.924;2022-08-21T08:22:53;3.52;;;2.90;;
20647;SDS011;10483;44.646;10.924;2022-08-21T08:25:21;3.05;;;2.75;;
20647;SDS011;10483;44.646;10.924;2022-08-21T08:27:49;3.85;;;3.05;;
20647;SDS011;10483;44.646;10.924;2022-08-21T08:30:17;3.22;;;3.02;;
20647;SDS011;10483;44.646;10.924;2022-08-21T08:32:45;4.35;;;3.70;;
20647;SDS011;10483;44.646;10.924;2022-08-21T08:35:12;4.05;;;3.65;;
20647;SDS011;10483;44.646;10.924;2022-08-21T08:37:40;4.10;;;3.70;;
20647;SDS011;10483;44.646;10.924;2022-08-21T08:40:11;4.17;;;3.80;;
20647;SDS011;10483;44.646;10.924;2022-08-21T08:42:40;5.40;;;3.55;;
20647;SDS011;10483;44.646;10.924;2022-08-21T08:45:09;4.65;;;3.85;;
20647;SDS011;10483;44.646;10.924;2022-08-21T08:47:39;4.45;;;4.05;;
20647;SDS011;10483;44.646;10.924;2022-08-21T08:50:10;4.87;;;4.05;;
20647;SDS011;10483;44.646;10.924;2022-08-21T08:52:43;8.75;;;5.33;;
20647;SDS011;10483;44.646;10.924;2022-08-21T08:55:18;6.00;;;5.40;;
20647;SDS011;10483;44.646;10.924;2022-08-21T08:57:48;5.08;;;3.55;;
20647;SDS011;10483;44.646;10.924;2022-08-21T09:00:18;5.15;;;4.50;;
20647;SDS011;10483;44.646;10.924;2022-08-21T09:02:47;4.75;;;4.35;;
20647;SDS011;10483;44.646;10.924;2022-08-21T09:05:19;5.45;;;4.87;;
20647;SDS011;10483;44.646;10.924;2022-08-21T09:07:53;5.42;;;4.92;;
20647;SDS011;10483;44.646;10.924;2022-08-21T09:10:44;5.22;;;4.72;;
20647;SDS011;10483;44.646;10.924;2022-08-21T09:14:23;4.72;;;3.75;;
20647;SDS011;10483;44.646;10.924;2022-08-21T09:16:05;4.33;;;3.47;;
20647;SDS011;10483;44.646;10.924;2022-08-21T09:18:41;5.28;;;4.67;;
20647;SDS011;10483;44.646;10.924;2022-08-21T09:21:16;5.45;;;4.90;;
20647;SDS011;10483;44.646;10.924;2022-08-21T09:26:56;4.85;;;4.45;;
20647;SDS011;10483;44.646;10.924;2022-08-21T09:29:36;5.30;;;4.80;;
20647;SDS011;10483;44.646;10.924;2022-08-21T09:32:10;4.20;;;3.87;;
20647;SDS011;10483;44.646;10.924;2022-08-21T09:34:56;4.50;;;4.10;;
20647;SDS011;10483;44.646;10.924;2022-08-21T09:37:30;5.47;;;4.97;;
20647;SDS011;10483;44.646;10.924;2022-08-21T09:39:59;4.17;;;3.77;;
20647;SDS011;10483;44.646;10.924;2022-08-21T09:42:28;3.85;;;3.37;;
20647;SDS011;10483;44.646;10.924;2022-08-21T09:45:07;4.95;;;4.08;;
20647;SDS011;10483;44.646;10.924;2022-08-21T09:47:43;4.72;;;4.15;;
20647;SDS011;10483;44.646;10.924;2022-08-21T09:50:13;5.20;;;4.42;;
20647;SDS011;10483;44.646;10.924;2022-08-21T09:52:49;5.35;;;4.30;;
20647;SDS011;10483;44.646;10.924;2022-08-21T09:55:20;4.10;;;3.80;;
20647;SDS011;10483;44.646;10.924;2022-08-21T09:58:12;4.72;;;4.33;;
20647;SDS011;10483;44.646;10.924;2022-08-21T10:00:40;4.25;;;3.77;;
20647;SDS011;10483;44.646;10.924;2022-08-21T10:03:09;3.95;;;3.58;;
20647;SDS011;10483;44.646;10.924;2022-08-21T10:05:50;4.22;;;3.83;;
20647;SDS011;10483;44.646;10.924;2022-08-21T10:08:19;4.28;;;3.90;;
20647;SDS011;10483;44.646;10.924;2022-08-21T10:10:50;5.47;;;4.00;;
20647;SDS011;10483;44.646;10.924;2022-08-21T10:13:21;3.92;;;3.62;;
20647;SDS011;10483;44.646;10.924;2022-08-21T10:18:36;4.90;;;3.20;;
20647;SDS011;10483;44.646;10.924;2022-08-21T10:21:10;8.25;;;4.90;;
20647;SDS011;10483;44.646;10.924;2022-08-21T10:23:45;4.22;;;3.75;;
20647;SDS011;10483;44.646;10.924;2022-08-21T10:26:20;3.40;;;3.10;;
20647;SDS011;10483;44.646;10.924;2022-08-21T10:28:53;4.22;;;2.60;;
20647;SDS011;10483;44.646;10.924;2022-08-21T10:31:43;2.60;;;2.40;;
20647;SDS011;10483;44.646;10.924;2022-08-21T10:34:25;2.60;;;2.00;;
20647;SDS011;10483;44.646;10.924;2022-08-21T10:38:19;3.08;;;2.47;;
20647;SDS011;10483;44.646;10.924;2022-08-21T10:42:31;5.65;;;2.72;;
20647;SDS011;10483;44.646;10.924;2022-08-21T10:45:15;4.37;;;2.47;;
20647;SDS011;10483;44.646;10.924;2022-08-21T10:47:59;3.27;;;2.50;;
20647;SDS011;10483;44.646;10.924;2022-08-21T10:50:39;2.75;;;2.30;;
20647;SDS011;10483;44.646;10.924;2022-08-21T10:53:32;2.52;;;2.40;;
20647;SDS011;10483;44.646;10.924;2022-08-21T10:56:12;2.47;;;2.27;;
20647;SDS011;10483;44.646;10.924;2022-08-21T10:58:45;2.45;;;2.20;;
20647;SDS011;10483;44.646;10.924;2022-08-21T11:01:17;2.40;;;2.20;;
20647;SDS011;10483;44.646;10.924;2022-08-21T11:03:50;3.55;;;2.30;;
20647;SDS011;10483;44.646;10.924;2022-08-21T11:06:21;3.42;;;2.27;;
20647;SDS011;10483;44.646;10.924;2022-08-21T11:08:50;3.25;;;2.40;;
20647;SDS011;10483;44.646;10.924;2022-08-21T11:11:28;2.30;;;2.10;;
20647;SDS011;10483;44.646;10.924;2022-08-21T11:14:04;2.37;;;2.17;;
20647;SDS011;10483;44.646;10.924;2022-08-21T11:16:41;2.15;;;1.87;;
20647;SDS011;10483;44.646;10.924;2022-08-21T11:24:43;2.10;;;1.90;;
20647;SDS011;10483;44.646;10.924;2022-08-21T11:27:18;3.83;;;1.67;;
20647;SDS011;10483;44.646;10.924;2022-08-21T11:29:48;2.30;;;2.10;;
20647;SDS011;10483;44.646;10.924;2022-08-21T11:37:56;2.87;;;2.30;;
20647;SDS011;10483;44.646;10.924;2022-08-21T11:40:31;1.85;;;1.75;;
20647;SDS011;10483;44.646;10.924;2022-08-21T11:43:17;2.30;;;2.10;;
20647;SDS011;10483;44.646;10.924;2022-08-21T11:45:47;3.42;;;2.12;;
20647;SDS011;10483;44.646;10.924;2022-08-21T11:48:25;2.52;;;2.00;;
20647;SDS011;10483;44.646;10.924;2022-08-21T11:50:51;2.08;;;1.98;;
20647;SDS011;10483;44.646;10.924;2022-08-21T11:53:24;2.30;;;1.98;;
20647;SDS011;10483;44.646;10.924;2022-08-21T11:55:56;3.95;;;2.40;;
20647;SDS011;10483;44.646;10.924;2022-08-21T11:58:28;2.40;;;2.20;;
20647;SDS011;10483;44.646;10.924;2022-08-21T12:01:01;2.37;;;1.92;;
20647;SDS011;10483;44.646;10.924;2022-08-21T12:03:33;2.25;;;1.80;;
20647;SDS011;10483;44.646;10.924;2022-08-21T12:06:07;3.15;;;2.17;;
20647;SDS011;10483;44.646;10.924;2022-08-21T12:08:36;1.80;;;1.70;;
20647;SDS011;10483;44.646;10.924;2022-08-21T12:11:09;1.98;;;1.87;;
20647;SDS011;10483;44.646;10.924;2022-08-21T12:13:54;2.10;;;1.90;;
20647;SDS011;10483;44.646;10.924;2022-08-21T12:16:29;1.75;;;1.52;;
20647;SDS011;10483;44.646;10.924;2022-08-21T12:19:03;1.85;;;1.70;;
20647;SDS011;10483;44.646;10.924;2022-08-21T12:21:34;2.00;;;1.80;;
20647;SDS011;10483;44.646;10.924;2022-08-21T12:24:17;1.77;;;1.67;;
20647;SDS011;10483;44.646;10.924;2022-08-21T12:26:52;3.00;;;2.20;;
20647;SDS011;10483;44.646;10.924;2022-08-21T12:29:23;1.87;;;1.77;;
20647;SDS011;10483;44.646;10.924;2022-08-21T12:31:56;1.87;;;1.70;;
20647;SDS011;10483;44.646;10.924;2022-08-21T12:37:15;2.80;;;1.82;;
20647;SDS011;10483;44.646;10.924;2022-08-21T12:39:46;1.60;;;1.50;;
20647;SDS011;10483;44.646;10.924;2022-08-21T12:42:25;1.80;;;1.70;;
20647;SDS011;10483;44.646;10.924;2022-08-21T12:45:03;1.85;;;1.60;;
20647;SDS011;10483;44.646;10.924;2022-08-21T12:47:33;1.70;;;1.60;;
20647;SDS011;10483;44.646;10.924;2022-08-21T12:50:03;2.37;;;1.95;;
20647;SDS011;10483;44.646;10.924;2022-08-21T12:52:34;1.90;;;1.80;;
20647;SDS011;10483;44.646;10.924;2022-08-21T12:55:03;3.70;;;1.85;;
20647;SDS011;10483;44.646;10.924;2022-08-21T12:57:31;2.22;;;2.02;;
20647;SDS011;10483;44.646;10.924;2022-08-21T12:59:59;1.92;;;1.72;;
20647;SDS011;10483;44.646;10.924;2022-08-21T13:02:31;2.40;;;1.80;;
20647;SDS011;10483;44.646;10.924;2022-08-21T13:05:05;2.02;;;1.80;;
20647;SDS011;10483;44.646;10.924;2022-08-21T13:07:35;2.17;;;1.70;;
20647;SDS011;10483;44.646;10.924;2022-08-21T13:10:06;1.95;;;1.65;;
20647;SDS011;10483;44.646;10.924;2022-08-21T13:12:36;2.08;;;1.72;;
20647;SDS011;10483;44.646;10.924;2022-08-21T13:15:04;3.15;;;1.50;;
20647;SDS011;10483;44.646;10.924;2022-08-21T13:17:33;1.77;;;1.67;;
20647;SDS011;10483;44.646;10.924;2022-08-21T13:20:06;3.05;;;2.02;;
20647;SDS011;10483;44.646;10.924;2022-08-21T13:22:39;1.77;;;1.55;;
20647;SDS011;10483;44.646;10.924;2022-08-21T13:25:14;2.27;;;1.80;;
20647;SDS011;10483;44.646;10.924;2022-08-21T13:27:56;1.98;;;1.47;;
20647;SDS011;10483;44.646;10.924;2022-08-21T13:30:17;2.77;;;1.72;;
20647;SDS011;10483;44.646;10.924;2022-08-21T13:32:48;2.02;;;1.57;;
20647;SDS011;10483;44.646;10.924;2022-08-21T13:35:19;2.12;;;1.70;;
20647;SDS011;10483;44.646;10.924;2022-08-21T13:37:49;2.02;;;1.82;;
20647;SDS011;10483;44.646;10.924;2022-08-21T13:40:19;2.37;;;1.67;;
20647;SDS011;10483;44.646;10.924;2022-08-21T13:42:51;2.20;;;1.98;;
20647;SDS011;10483;44.646;10.924;2022-08-21T13:45:24;2.30;;;2.10;;
20647;SDS011;10483;44.646;10.924;2022-08-21T13:47:52;2.05;;;1.85;;
20647;SDS011;10483;44.646;10.924;2022-08-21T13:50:21;3.15;;;1.65;;
20647;SDS011;10483;44.646;10.924;2022-08-21T13:52:54;2.30;;;1.72;;
20647;SDS011;10483;44.646;10.924;2022-08-21T13:55:23;2.77;;;1.85;;
20647;SDS011;10483;44.646;10.924;2022-08-21T14:00:27;1.75;;;1.65;;
20647;SDS011;10483;44.646;10.924;2022-08-21T14:03:04;1.77;;;1.60;;
20647;SDS011;10483;44.646;10.924;2022-08-21T14:05:34;1.70;;;1.60;;
20647;SDS011;10483;44.646;10.924;2022-08-21T14:08:05;1.85;;;1.65;;
20647;SDS011;10483;44.646;10.924;2022-08-21T14:10:41;2.42;;;1.65;;
20647;SDS011;10483;44.646;10.924;2022-08-21T14:13:15;1.52;;;1.42;;
20647;SDS011;10483;44.646;10.924;2022-08-21T14:15:43;1.85;;;1.60;;
20647;SDS011;10483;44.646;10.924;2022-08-21T14:18:15;1.85;;;1.47;;
20647;SDS011;10483;44.646;10.924;2022-08-21T14:20:45;1.72;;;1.62;;
20647;SDS011;10483;44.646;10.924;2022-08-21T14:23:23;1.45;;;1.35;;
20647;SDS011;10483;44.646;10.924;2022-08-21T14:25:47;2.72;;;1.67;;
20647;SDS011;10483;44.646;10.924;2022-08-21T14:33:41;1.82;;;1.50;;
20647;SDS011;10483;44.646;10.924;2022-08-21T14:36:08;2.05;;;1.30;;
20647;SDS011;10483;44.646;10.924;2022-08-21T14:38:37;1.80;;;1.37;;
20647;SDS011;10483;44.646;10.924;2022-08-21T14:41:11;2.00;;;1.50;;
20647;SDS011;10483;44.646;10.924;2022-08-21T14:43:41;1.60;;;1.50;;
20647;SDS011;10483;44.646;10.924;2022-08-21T14:46:11;1.50;;;1.40;;
20647;SDS011;10483;44.646;10.924;2022-08-21T14:48:41;1.70;;;1.60;;
20647;SDS011;10483;44.646;10.924;2022-08-21T14:51:08;1.50;;;1.40;;
20647;SDS011;10483;44.646;10.924;2022-08-21T14:53:35;2.20;;;1.50;;
20647;SDS011;10483;44.646;10.924;2022-08-21T14:56:02;2.92;;;1.50;;
20647;SDS011;10483;44.646;10.924;2022-08-21T14:58:32;7.08;;;1.70;;
20647;SDS011;10483;44.646;10.924;2022-08-21T15:01:01;1.50;;;1.40;;
20647;SDS011;10483;44.646;10.924;2022-08-21T15:03:30;1.85;;;1.50;;
20647;SDS011;10483;44.646;10.924;2022-08-21T15:05:57;1.65;;;1.55;;
20647;SDS011;10483;44.646;10.924;2022-08-21T15:08:24;1.72;;;1.30;;
20647;SDS011;10483;44.646;10.924;2022-08-21T15:10:51;1.45;;;1.30;;
20647;SDS011;10483;44.646;10.924;2022-08-21T15:13:19;2.15;;;1.80;;
20647;SDS011;10483;44.646;10.924;2022-08-21T15:15:47;1.70;;;1.60;;
20647;SDS011;10483;44.646;10.924;2022-08-21T15:18:18;1.70;;;1.60;;
20647;SDS011;10483;44.646;10.924;2022-08-21T15:20:46;2.00;;;1.42;;